Time;durP1;ratioP1;P1;durP2;ratioP2;P2;SDS_P1;SDS_P2;PMS_P1;PMS_P2;Temp;Humidity;BMP_temperature;BMP_pressure;BME280_temperature;BME280_humidity;BME280_pressure;Samples;Min_cycle;Max_cycle;Signal;HPM_P1;HPM_P2
2022/04/30 00:00:58;;;;;;;0.68;0.43;;;5.20;78.00;;;;;;4992389;28;20094;-73
2022/04/30 00:03:28;;;;;;;1.20;0.50;;;5.20;77.90;;;;;;4996415;28;20390;-73
2022/04/30 00:05:55;;;;;;;0.67;0.60;;;5.20;77.80;;;;;;4996258;28;20501;-73
2022/04/30 00:08:21;;;;;;;1.13;0.57;;;5.20;78.10;;;;;;4996146;28;20027;-74
2022/04/30 00:10:48;;;;;;;0.47;0.40;;;5.20;78.10;;;;;;4996215;28;20390;-75
2022/04/30 00:13:14;;;;;;;1.20;0.60;;;5.20;78.10;;;;;;4996034;28;20061;-75
2022/04/30 00:15:40;;;;;;;2.55;0.52;;;5.30;78.40;;;;;;4996108;28;20027;-74
2022/04/30 00:18:06;;;;;;;1.17;1.00;;;5.20;78.90;;;;;;4995925;28;20635;-74
2022/04/30 00:20:32;;;;;;;0.30;0.30;;;5.30;79.10;;;;;;4978607;28;20037;-74
2022/04/30 00:22:58;;;;;;;0.63;0.43;;;5.20;79.10;;;;;;4996123;28;20027;-74
2022/04/30 00:25:24;;;;;;;0.50;0.50;;;5.20;79.00;;;;;;4996101;28;20033;-74
2022/04/30 00:27:51;;;;;;;1.08;0.38;;;5.30;79.00;;;;;;4995846;28;20022;-74
2022/04/30 00:30:17;;;;;;;0.50;0.50;;;5.30;79.10;;;;;;4995683;28;20034;-73
2022/04/30 00:32:42;;;;;;;0.60;0.52;;;5.30;79.20;;;;;;4996007;28;20038;-72
2022/04/30 00:35:08;;;;;;;0.35;0.30;;;5.30;79.60;;;;;;4995451;28;20589;-72
2022/04/30 00:37:34;;;;;;;1.25;0.50;;;5.30;79.50;;;;;;4978176;28;20846;-73
2022/04/30 00:40:01;;;;;;;0.57;0.40;;;5.30;79.40;;;;;;4995601;28;20026;-74
2022/04/30 00:42:27;;;;;;;1.25;0.40;;;5.30;79.40;;;;;;4995618;28;20471;-74
2022/04/30 00:44:52;;;;;;;0.57;0.43;;;5.30;79.90;;;;;;4995615;28;20098;-74
2022/04/30 00:47:19;;;;;;;1.10;0.50;;;5.30;80.30;;;;;;4995361;28;20122;-74
2022/04/30 00:49:45;;;;;;;0.70;0.40;;;5.30;80.10;;;;;;4995910;28;20062;-74
2022/04/30 00:52:15;;;;;;;0.40;0.30;;;5.30;80.00;;;;;;4995309;28;20041;-73
2022/04/30 00:54:42;;;;;;;0.43;0.40;;;5.30;80.30;;;;;;4995594;28;20031;-73
2022/04/30 00:57:13;;;;;;;1.98;0.40;;;5.30;80.50;;;;;;4995626;28;20064;-72
2022/04/30 00:59:41;;;;;;;1.63;0.50;;;5.30;80.50;;;;;;4995474;28;20073;-73
2022/04/30 01:02:11;;;;;;;0.85;0.40;;;5.30;80.40;;;;;;4995137;28;20470;-73
2022/04/30 01:04:36;;;;;;;0.30;0.30;;;5.30;80.70;;;;;;4995321;28;20129;-73
2022/04/30 01:07:07;;;;;;;3.75;0.50;;;5.20;81.10;;;;;;4995284;28;20038;-72
2022/04/30 01:09:35;;;;;;;0.43;0.43;;;5.20;81.50;;;;;;4995486;28;20029;-73
2022/04/30 01:12:08;;;;;;;3.83;0.60;;;5.20;81.80;;;;;;4992059;28;20038;-73
2022/04/30 01:14:35;;;;;;;2.38;0.65;;;5.20;81.80;;;;;;4976074;28;20522;-73
2022/04/30 01:17:05;;;;;;;0.30;0.30;;;5.20;81.60;;;;;;4975639;28;20027;-72
2022/04/30 01:19:37;;;;;;;0.43;0.43;;;5.20;81.90;;;;;;4975513;28;20069;-72
2022/04/30 01:22:12;;;;;;;2.55;0.40;;;5.20;81.90;;;;;;4975367;28;20390;-73
2022/04/30 01:24:37;;;;;;;0.80;0.40;;;5.20;82.30;;;;;;4975665;28;20065;-73
2022/04/30 01:27:07;;;;;;;0.70;0.40;;;5.20;82.00;;;;;;4975198;28;20067;-73
2022/04/30 01:29:33;;;;;;;0.75;0.70;;;5.20;82.10;;;;;;4975527;28;20023;-72
2022/04/30 01:37:36;;;;;;;1.23;0.55;;;5.20;83.10;;;;;;4975308;28;20093;-72
2022/04/30 01:40:09;;;;;;;0.50;0.50;;;5.20;82.90;;;;;;4975539;28;20532;-72
2022/04/30 01:42:43;;;;;;;0.45;0.45;;;5.20;83.70;;;;;;4975174;28;20034;-72
2022/04/30 01:45:10;;;;;;;0.32;0.32;;;5.20;83.40;;;;;;4974948;28;20023;-72
2022/04/30 01:47:38;;;;;;;0.45;0.32;;;5.20;83.40;;;;;;4974913;28;20454;-72
2022/04/30 01:50:05;;;;;;;1.40;0.50;;;5.20;83.50;;;;;;4974964;28;20062;-73
2022/04/30 01:52:31;;;;;;;0.85;0.50;;;5.20;83.40;;;;;;4974773;28;20050;-73
2022/04/30 01:54:58;;;;;;;0.50;0.50;;;5.20;83.40;;;;;;4975209;28;20023;-73
2022/04/30 01:57:26;;;;;;;1.58;0.43;;;5.20;83.60;;;;;;4974624;28;20248;-73
2022/04/30 01:59:56;;;;;;;0.38;0.38;;;5.20;83.60;;;;;;4974930;28;20034;-73
2022/04/30 02:02:26;;;;;;;0.40;0.40;;;5.20;83.90;;;;;;4974649;28;20058;-73
2022/04/30 02:04:54;;;;;;;0.43;0.43;;;5.20;84.10;;;;;;4974786;28;20023;-73
2022/04/30 02:07:22;;;;;;;1.08;0.38;;;5.20;84.20;;;;;;4974868;28;20026;-73
2022/04/30 02:09:53;;;;;;;0.40;0.40;;;5.20;84.10;;;;;;4974928;28;20167;-73
2022/04/30 02:12:19;;;;;;;0.50;0.50;;;5.20;84.20;;;;;;4974372;28;20077;-73
2022/04/30 02:14:55;;;;;;;0.40;0.40;;;5.30;84.40;;;;;;4974507;28;20394;-73
2022/04/30 02:17:23;;;;;;;0.43;0.40;;;5.20;84.70;;;;;;4974400;28;20026;-73
2022/04/30 02:22:38;;;;;;;0.40;0.40;;;5.20;84.80;;;;;;4974747;28;20077;-73
2022/04/30 02:56:33;;;;;;;0.60;0.32;;;5.30;86.70;;;;;;4979312;28;20062;-73
2022/04/30 03:02:01;;;;;;;1.20;0.50;;;5.40;87.50;;;;;;4973786;28;20081;-72
2022/04/30 03:38:08;;;;;;;0.40;0.40;;;5.50;90.80;;;;;;5600390;23;20088;-62
2022/04/30 03:40:34;;;;;;;0.95;0.40;;;5.50;91.00;;;;;;4973131;28;20038;-62
2022/04/30 03:43:03;;;;;;;0.40;0.40;;;5.40;91.20;;;;;;4973164;28;20042;-62
2022/04/30 03:45:29;;;;;;;1.17;0.40;;;5.40;91.30;;;;;;4973449;28;20030;-62
2022/04/30 03:47:54;;;;;;;0.70;0.40;;;5.50;91.30;;;;;;4973108;28;20034;-62
2022/04/30 03:50:20;;;;;;;1.05;0.50;;;5.50;91.60;;;;;;4973041;28;20041;-62
2022/04/30 03:52:46;;;;;;;0.65;0.55;;;5.40;91.70;;;;;;4955387;28;20086;-62
2022/04/30 03:55:14;;;;;;;1.25;0.40;;;5.40;91.60;;;;;;4955720;28;20031;-63
2022/04/30 03:57:40;;;;;;;0.50;0.50;;;5.50;91.60;;;;;;4972961;28;20054;-62
2022/04/30 04:00:07;;;;;;;0.57;0.40;;;5.50;91.60;;;;;;4973299;28;20447;-62
2022/04/30 04:02:33;;;;;;;0.43;0.43;;;5.50;91.60;;;;;;4972885;28;20023;-62
2022/04/30 04:04:59;;;;;;;0.50;0.50;;;5.50;91.60;;;;;;4972801;28;20031;-63
2022/04/30 04:07:26;;;;;;;1.20;0.50;;;5.50;91.60;;;;;;4972958;28;20090;-63
2022/04/30 04:09:51;;;;;;;1.35;0.50;;;5.50;91.70;;;;;;4972753;28;20437;-62
2022/04/30 04:12:17;;;;;;;4.82;0.73;;;5.60;91.70;;;;;;4973168;28;20035;-63
2022/04/30 04:17:39;;;;;;;5.40;0.57;;;5.60;91.70;;;;;;4973105;28;20077;-63
2022/04/30 04:20:07;;;;;;;3.60;0.63;;;5.70;91.70;;;;;;4972920;28;20029;-63
2022/04/30 04:22:33;;;;;;;1.60;0.50;;;5.70;91.50;;;;;;4972863;28;20038;-62
2022/04/30 04:27:43;;;;;;;1.85;0.47;;;5.80;91.80;;;;;;4972904;28;20438;-62
2022/04/30 04:30:09;;;;;;;0.50;0.50;;;5.80;91.30;;;;;;4972685;28;20022;-62
2022/04/30 04:32:35;;;;;;;0.55;0.40;;;5.90;91.30;;;;;;4972835;28;20039;-63
2022/04/30 04:35:01;;;;;;;3.00;0.60;;;5.90;91.30;;;;;;4972471;28;20029;-62
2022/04/30 04:37:27;;;;;;;1.83;0.40;;;5.90;91.10;;;;;;4972300;28;20118;-62
2022/04/30 04:39:55;;;;;;;3.63;0.50;;;6.30;99.90;;;;;;4986415;28;20034;-63
2022/04/30 04:42:20;;;;;;;1.40;0.32;;;7.40;98.50;;;;;;4990769;28;20026;-63
2022/04/30 04:44:47;;;;;;;2.65;0.50;;;7.30;91.90;;;;;;4991468;28;20029;-64
2022/04/30 04:47:13;;;;;;;0.63;0.50;;;7.00;90.80;;;;;;4992108;28;20035;-64
2022/04/30 04:49:40;;;;;;;0.95;0.50;;;6.80;91.10;;;;;;4995580;28;20390;-64
2022/04/30 04:52:08;;;;;;;0.75;0.43;;;6.70;91.30;;;;;;4989533;28;20050;-63
2022/04/30 04:54:34;;;;;;;1.17;0.40;;;6.60;91.60;;;;;;4977552;28;20026;-63
2022/04/30 04:57:00;;;;;;;2.17;0.50;;;6.60;91.70;;;;;;4993607;28;20037;-66
2022/04/30 04:59:26;;;;;;;0.90;0.50;;;6.50;91.70;;;;;;4987067;28;20035;-63
2022/04/30 05:01:52;;;;;;;1.15;0.30;;;6.50;91.50;;;;;;4983388;28;20026;-64
2022/04/30 05:04:19;;;;;;;1.65;0.52;;;6.60;91.50;;;;;;4988911;28;20033;-63
2022/04/30 05:06:48;;;;;;;1.10;0.50;;;6.60;91.30;;;;;;4986329;28;20073;-64
2022/04/30 05:09:14;;;;;;;0.75;0.50;;;6.60;91.20;;;;;;4979725;28;20101;-64
2022/04/30 05:11:40;;;;;;;1.05;0.52;;;6.70;91.20;;;;;;4975764;28;20031;-62
2022/04/30 05:14:06;;;;;;;1.13;0.50;;;6.70;91.00;;;;;;4975596;28;20026;-62
2022/04/30 05:16:32;;;;;;;1.30;0.50;;;6.80;91.50;;;;;;4975304;28;20047;-62
2022/04/30 05:18:58;;;;;;;1.30;0.47;;;6.90;90.90;;;;;;4957996;28;20062;-62
2022/04/30 05:21:24;;;;;;;0.57;0.40;;;6.90;90.60;;;;;;4975633;28;20569;-62
2022/04/30 05:23:50;;;;;;;3.38;1.25;;;7.00;90.40;;;;;;4975354;28;20050;-62
2022/04/30 05:26:22;;;;;;;1.00;0.80;;;7.10;90.30;;;;;;4975664;28;20545;-63
2022/04/30 05:28:48;;;;;;;0.68;0.40;;;7.10;90.10;;;;;;4975277;28;20022;-63
2022/04/30 05:31:13;;;;;;;1.50;0.75;;;7.20;89.90;;;;;;4975475;28;20034;-63
2022/04/30 05:33:39;;;;;;;0.77;0.50;;;7.50;95.40;;;;;;4975547;28;20094;-63
2022/04/30 05:36:05;;;;;;;0.70;0.40;;;7.70;90.20;;;;;;4975459;28;20023;-63
2022/04/30 05:38:31;;;;;;;4.13;0.50;;;7.70;88.70;;;;;;4975074;28;20055;-63
2022/04/30 05:40:57;;;;;;;1.15;0.40;;;7.60;88.00;;;;;;4975111;28;20474;-63
2022/04/30 05:43:22;;;;;;;2.78;0.60;;;7.60;87.80;;;;;;4975127;28;20035;-63
2022/04/30 05:45:48;;;;;;;0.73;0.45;;;7.60;87.90;;;;;;4975039;28;20023;-63
2022/04/30 05:48:14;;;;;;;0.55;0.40;;;7.80;87.90;;;;;;4975161;28;20493;-63
2022/04/30 05:50:39;;;;;;;2.85;0.50;;;8.10;86.90;;;;;;4975030;28;20026;-64
2022/04/30 05:53:05;;;;;;;1.58;0.57;;;8.30;86.60;;;;;;4974973;28;20073;-64
2022/04/30 05:55:31;;;;;;;2.35;0.43;;;8.70;85.30;;;;;;4974876;28;20051;-66
2022/04/30 05:57:57;;;;;;;0.75;0.38;;;8.80;83.40;;;;;;4974716;28;20058;-66
2022/04/30 06:00:23;;;;;;;0.30;0.30;;;9.10;84.90;;;;;;4973518;28;20027;-65
2022/04/30 06:02:49;;;;;;;0.40;0.40;;;9.40;83.20;;;;;;4974710;28;20033;-65
2022/04/30 06:05:15;;;;;;;1.38;0.50;;;9.60;80.90;;;;;;4974948;28;20114;-65
2022/04/30 06:07:41;;;;;;;1.55;0.60;;;9.80;80.30;;;;;;4974664;28;20034;-65
2022/04/30 06:10:07;;;;;;;1.58;0.50;;;10.00;78.70;;;;;;4974554;28;20027;-64
2022/04/30 06:12:34;;;;;;;0.77;0.30;;;10.20;77.50;;;;;;4974438;28;20125;-64
2022/04/30 06:15:01;;;;;;;1.55;0.40;;;10.50;77.20;;;;;;4974420;28;20014;-67
2022/04/30 06:17:27;;;;;;;1.15;0.40;;;10.70;75.00;;;;;;4974581;28;20027;-67
2022/04/30 06:19:52;;;;;;;2.13;0.40;;;10.80;74.70;;;;;;4974517;28;20026;-64
2022/04/30 06:22:18;;;;;;;1.17;1.08;;;11.00;73.50;;;;;;4957059;28;20475;-65
2022/04/30 06:24:44;;;;;;;0.45;0.30;;;11.10;72.50;;;;;;4974229;28;20019;-65
2022/04/30 06:27:09;;;;;;;0.95;0.30;;;11.20;71.60;;;;;;4974490;28;20031;-63
2022/04/30 06:29:35;;;;;;;2.30;0.50;;;11.30;71.90;;;;;;4974163;28;20027;-64
2022/04/30 06:32:02;;;;;;;1.40;0.50;;;11.30;71.10;;;;;;4974044;28;20124;-64
2022/04/30 06:34:27;;;;;;;2.67;0.47;;;11.40;69.80;;;;;;4974183;28;20066;-63
2022/04/30 06:36:53;;;;;;;0.95;0.40;;;11.50;69.50;;;;;;4974015;28;20031;-64
2022/04/30 06:39:19;;;;;;;3.88;0.40;;;11.40;68.70;;;;;;4973909;28;20402;-65
2022/04/30 06:41:45;;;;;;;0.60;0.30;;;11.40;68.60;;;;;;4956663;28;20031;-63
2022/04/30 06:44:11;;;;;;;0.57;0.25;;;11.40;68.30;;;;;;4974084;28;20046;-64
2022/04/30 06:46:36;;;;;;;0.38;0.30;;;11.40;68.10;;;;;;4984194;28;20061;-62
2022/04/30 06:49:02;;;;;;;0.32;0.30;;;11.20;67.40;;;;;;4993179;28;20033;-61
2022/04/30 06:51:27;;;;;;;0.50;0.32;;;11.20;67.20;;;;;;4993630;28;20442;-62
2022/04/30 06:59:22;;;;;;;0.68;0.30;;;11.50;66.60;;;;;;4993528;28;20048;-62
2022/04/30 07:02:01;;;;;;;2.38;0.60;;;11.70;66.50;;;;;;4993070;28;20033;-61
2022/04/30 07:04:29;;;;;;;1.25;0.30;;;11.80;66.80;;;;;;4992786;28;20109;-63
2022/04/30 07:06:55;;;;;;;13.13;0.82;;;11.80;65.10;;;;;;4992552;28;20018;-62
2022/04/30 07:09:22;;;;;;;2.92;0.43;;;11.40;69.90;;;;;;4992611;28;20033;-63
2022/04/30 07:11:47;;;;;;;9.05;1.35;;;12.50;74.60;;;;;;4992283;28;20046;-63
2022/04/30 07:14:13;;;;;;;3.75;0.80;;;12.60;65.50;;;;;;4992574;28;20034;-62
2022/04/30 07:16:39;;;;;;;2.90;0.50;;;12.50;72.90;;;;;;4992548;28;20029;-65
2022/04/30 07:19:05;;;;;;;4.55;0.70;;;13.30;73.10;;;;;;4992228;28;20105;-63
2022/04/30 07:21:31;;;;;;;4.43;0.70;;;13.60;68.60;;;;;;4992737;28;20096;-63
2022/04/30 07:24:00;;;;;;;0.73;0.40;;;13.90;70.80;;;;;;4992840;28;20030;-63
2022/04/30 07:26:26;;;;;;;0.35;0.20;;;13.60;62.20;;;;;;4992746;28;20037;-63
2022/04/30 07:28:52;;;;;;;0.63;0.38;;;12.90;60.80;;;;;;4992437;28;20023;-63
2022/04/30 07:31:19;;;;;;;0.30;0.30;;;12.30;60.50;;;;;;4992824;28;20053;-63
2022/04/30 07:33:45;;;;;;;1.23;0.40;;;11.90;61.20;;;;;;4992513;28;20473;-63
2022/04/30 07:36:10;;;;;;;1.35;0.40;;;11.50;61.40;;;;;;4992645;28;20026;-63
2022/04/30 07:38:36;;;;;;;0.65;0.30;;;11.30;62.10;;;;;;4992554;28;20054;-64
2022/04/30 07:41:03;;;;;;;0.75;0.30;;;11.10;62.40;;;;;;4992611;28;20033;-63
2022/04/30 07:43:28;;;;;;;0.88;0.30;;;11.00;63.10;;;;;;4992756;28;20030;-63
2022/04/30 07:45:54;;;;;;;0.20;0.20;;;10.70;64.00;;;;;;4992313;28;20030;-63
2022/04/30 07:48:20;;;;;;;0.52;0.30;;;10.70;64.30;;;;;;4992401;28;20026;-63
2022/04/30 07:50:46;;;;;;;0.55;0.40;;;10.70;64.40;;;;;;4992342;28;20044;-63
2022/04/30 07:53:15;;;;;;;1.60;0.30;;;10.70;63.70;;;;;;4992476;28;20396;-63
2022/04/30 07:55:42;;;;;;;0.77;0.30;;;10.50;63.40;;;;;;4992402;28;20018;-63
2022/04/30 07:58:08;;;;;;;3.40;0.40;;;10.40;63.50;;;;;;4974792;28;20066;-63
2022/04/30 08:00:34;;;;;;;0.30;0.30;;;9.90;67.80;;;;;;4992297;28;20540;-63
2022/04/30 08:03:00;;;;;;;4.25;0.40;;;9.50;70.20;;;;;;4992469;28;20222;-63
2022/04/30 08:05:26;;;;;;;4.95;0.38;;;9.20;72.70;;;;;;4992262;28;20036;-63
2022/04/30 08:07:54;;;;;;;1.65;0.57;;;9.10;74.70;;;;;;4992178;28;20026;-63
2022/04/30 08:10:20;;;;;;;1.92;0.40;;;9.00;75.90;;;;;;4992535;28;20109;-63
2022/04/30 08:12:46;;;;;;;10.05;0.50;;;8.90;79.30;;;;;;4992576;28;20069;-63
2022/04/30 08:15:12;;;;;;;5.07;0.40;;;8.70;81.30;;;;;;4992364;28;20410;-63
2022/04/30 08:17:39;;;;;;;1.00;0.35;;;8.50;82.60;;;;;;4992309;28;20036;-63
2022/04/30 08:20:06;;;;;;;2.08;0.45;;;8.40;85.70;;;;;;4992121;28;20041;-63
2022/04/30 08:22:32;;;;;;;1.50;0.40;;;8.30;88.80;;;;;;4992962;28;20026;-63
2022/04/30 08:25:00;;;;;;;0.40;0.40;;;8.20;91.10;;;;;;4995824;28;20038;-63
2022/04/30 08:27:26;;;;;;;0.75;0.40;;;8.10;92.20;;;;;;4995956;28;20478;-63
2022/04/30 08:29:52;;;;;;;1.35;0.40;;;8.10;93.20;;;;;;4995618;28;20037;-63
2022/04/30 08:32:19;;;;;;;2.25;0.30;;;8.10;95.10;;;;;;4995786;28;20038;-63
2022/04/30 08:34:45;;;;;;;1.58;0.50;;;8.10;95.10;;;;;;4995914;28;20034;-63
2022/04/30 08:37:11;;;;;;;0.40;0.40;;;8.20;96.00;;;;;;4978015;28;20096;-63
2022/04/30 08:39:37;;;;;;;3.83;0.40;;;8.30;96.10;;;;;;4995502;28;20046;-63
2022/04/30 08:42:06;;;;;;;0.40;0.40;;;8.30;96.60;;;;;;4995777;28;20018;-63
2022/04/30 08:44:35;;;;;;;2.05;0.40;;;8.30;97.40;;;;;;4995625;28;20030;-63
2022/04/30 08:47:01;;;;;;;0.85;0.43;;;8.40;96.50;;;;;;4995630;28;20037;-63
2022/04/30 08:49:26;;;;;;;0.50;0.50;;;8.40;97.00;;;;;;4995752;28;20175;-63
2022/04/30 08:51:52;;;;;;;0.40;0.30;;;8.40;96.60;;;;;;4995538;28;20113;-63
2022/04/30 08:54:18;;;;;;;1.27;0.38;;;8.40;95.40;;;;;;4995531;28;20022;-63
2022/04/30 08:56:54;;;;;;;2.00;0.40;;;8.20;95.10;;;;;;4995345;28;20385;-63
2022/04/30 08:59:20;;;;;;;0.30;0.30;;;8.10;94.90;;;;;;4995242;28;20092;-63
2022/04/30 09:01:49;;;;;;;0.80;0.40;;;8.10;95.00;;;;;;4977845;28;20497;-63
2022/04/30 09:04:15;;;;;;;0.40;0.40;;;8.10;95.30;;;;;;4995312;28;20105;-63
2022/04/30 09:06:58;;;;;;;0.88;0.55;;;8.10;95.50;;;;;;4995199;28;20528;-63
2022/04/30 09:09:29;;;;;;;1.75;0.38;;;8.10;93.60;;;;;;4995371;28;20054;-65
2022/04/30 09:12:09;;;;;;;3.17;0.70;;;8.00;94.00;;;;;;4995004;28;20030;-63
2022/04/30 09:14:36;;;;;;;8.30;1.50;;;8.10;94.10;;;;;;4994974;28;20033;-63
2022/04/30 09:17:07;;;;;;;2.15;0.40;;;8.10;93.80;;;;;;4994980;28;20019;-63
2022/04/30 09:20:01;;;;;;;0.32;0.30;;;8.10;92.10;;;;;;4994979;28;20038;-63
2022/04/30 09:22:30;;;;;;;1.88;0.50;;;7.80;91.00;;;;;;4992247;28;20036;-63
2022/04/30 09:24:57;;;;;;;0.22;0.22;;;7.50;91.00;;;;;;4995063;28;20114;-63
2022/04/30 09:27:23;;;;;;;0.40;0.40;;;7.30;91.20;;;;;;4995158;28;20041;-63
2022/04/30 09:29:49;;;;;;;3.65;0.80;;;7.20;91.40;;;;;;4994919;28;20023;-63
2022/04/30 09:32:23;;;;;;;1.95;0.40;;;7.00;90.90;;;;;;4994611;28;20042;-63
2022/04/30 09:37:45;;;;;;;0.68;0.40;;;6.80;91.20;;;;;;4994735;28;20045;-63
2022/04/30 09:40:14;;;;;;;0.75;0.50;;;6.70;91.30;;;;;;4994663;28;20033;-63
2022/04/30 09:42:44;;;;;;;0.40;0.40;;;6.70;92.10;;;;;;4977062;28;20380;-63
2022/04/30 09:45:21;;;;;;;;;;;6.60;92.90;;;;;;4977256;28;20080;-63
2022/04/30 09:47:47;;;;;;;0.77;0.50;;;6.50;93.90;;;;;;4994507;28;20343;-63
2022/04/30 09:55:54;;;;;;;0.40;0.40;;;6.20;98.00;;;;;;4994623;28;20045;-63
2022/04/30 09:58:27;;;;;;;0.77;0.52;;;6.10;99.20;;;;;;4994337;28;20027;-63
2022/04/30 10:00:58;;;;;;;0.88;0.50;;;6.10;99.90;;;;;;4994169;28;20535;-63
2022/04/30 10:03:29;;;;;;;0.75;0.60;;;6.10;99.90;;;;;;4994132;28;20060;-63
2022/04/30 10:06:00;;;;;;;1.70;0.60;;;6.00;99.90;;;;;;4994024;28;20037;-63
2022/04/30 10:08:28;;;;;;;0.77;0.47;;;5.90;99.90;;;;;;4994325;28;20026;-63
2022/04/30 10:11:14;;;;;;;2.17;0.77;;;5.60;99.90;;;;;;4993404;28;20023;-63
2022/04/30 10:14:02;;;;;;;2.65;0.88;;;5.50;99.90;;;;;;4974819;28;20042;-62
2022/04/30 10:16:28;;;;;;;25.40;2.55;;;5.80;99.90;;;;;;4974774;28;20041;-65
2022/04/30 10:19:14;;;;;;;2.75;0.68;;;6.00;99.90;;;;;;4974635;28;20477;-63
2022/04/30 10:21:41;;;;;;;1.63;0.80;;;6.80;99.90;;;;;;4974465;28;20034;-61
2022/04/30 10:24:09;;;;;;;2.30;1.10;;;6.50;99.90;;;;;;4974557;28;20027;-62
2022/04/30 10:26:35;;;;;;;1.45;0.93;;;6.30;99.90;;;;;;4974686;28;20031;-69
2022/04/30 10:29:12;;;;;;;0.57;0.57;;;6.20;99.90;;;;;;4977786;28;20033;-68
2022/04/30 10:31:45;;;;;;;0.73;0.70;;;6.10;99.90;;;;;;4975936;28;20031;-68
2022/04/30 10:34:11;;;;;;;2.10;1.17;;;6.20;99.90;;;;;;4985122;28;20031;-66
2022/04/30 10:36:39;;;;;;;1.00;0.75;;;6.40;99.90;;;;;;4973841;28;20105;-66
2022/04/30 10:39:09;;;;;;;2.08;0.82;;;6.50;99.90;;;;;;4980018;28;20499;-66
2022/04/30 10:41:43;;;;;;;1.35;1.20;;;6.40;99.90;;;;;;4987754;28;20118;-65
2022/04/30 10:44:09;;;;;;;1.05;1.00;;;6.40;99.90;;;;;;4993478;28;20121;-65
2022/04/30 10:46:37;;;;;;;1.13;1.02;;;6.40;99.90;;;;;;4993184;28;20130;-65
2022/04/30 10:49:06;;;;;;;1.45;0.90;;;6.40;99.90;;;;;;4993401;28;20022;-65
2022/04/30 10:51:42;;;;;;;1.23;0.90;;;6.30;99.90;;;;;;4993392;28;20035;-65
2022/04/30 10:54:13;;;;;;;0.60;0.60;;;6.30;99.90;;;;;;4993186;28;20023;-65
2022/04/30 10:56:39;;;;;;;0.93;0.88;;;6.30;99.90;;;;;;4993552;28;20078;-64
2022/04/30 10:59:06;;;;;;;2.10;0.98;;;6.30;99.90;;;;;;4992490;28;20022;-65
2022/04/30 11:01:32;;;;;;;1.60;0.85;;;6.30;99.90;;;;;;4993120;28;20029;-65
2022/04/30 11:03:59;;;;;;;3.35;0.80;;;6.30;99.90;;;;;;4993079;28;20030;-65
2022/04/30 11:06:26;;;;;;;1.75;0.95;;;6.40;99.90;;;;;;4992638;28;20113;-65
2022/04/30 11:09:00;;;;;;;1.58;1.10;;;6.40;99.90;;;;;;4993393;28;20026;-66
2022/04/30 11:11:27;;;;;;;1.55;1.10;;;6.40;99.90;;;;;;4992904;28;20022;-66
2022/04/30 11:13:58;;;;;;;0.80;0.80;;;6.40;99.90;;;;;;4993059;28;20474;-66
2022/04/30 11:16:32;;;;;;;1.27;1.02;;;6.40;99.90;;;;;;4992851;28;20489;-66
2022/04/30 11:19:20;;;;;;;1.15;0.70;;;6.40;99.90;;;;;;4975671;28;20116;-66
2022/04/30 11:21:53;;;;;;;0.82;0.50;;;6.40;99.90;;;;;;4992828;28;20118;-66
2022/04/30 11:24:30;;;;;;;0.60;0.60;;;6.40;99.90;;;;;;4992948;28;20030;-66
2022/04/30 11:27:04;;;;;;;2.20;0.63;;;6.50;99.90;;;;;;4993033;28;20027;-66
2022/04/30 11:29:37;;;;;;;1.83;0.80;;;6.50;99.90;;;;;;4992740;28;20022;-65
2022/04/30 11:32:05;;;;;;;1.10;0.63;;;6.40;99.90;;;;;;4992438;28;20547;-65
2022/04/30 11:34:30;;;;;;;0.70;0.70;;;6.40;99.90;;;;;;4992669;28;20109;-65
2022/04/30 11:36:58;;;;;;;0.63;0.50;;;6.40;99.90;;;;;;4992534;28;20109;-65
2022/04/30 11:39:25;;;;;;;0.60;0.60;;;6.40;99.90;;;;;;4992426;28;20154;-65
2022/04/30 11:41:53;;;;;;;0.70;0.50;;;6.30;99.90;;;;;;4992630;28;20035;-65
2022/04/30 11:44:21;;;;;;;1.98;0.50;;;6.20;99.90;;;;;;4992340;28;20524;-65
2022/04/30 11:46:48;;;;;;;0.55;0.52;;;6.20;99.90;;;;;;4992416;28;20026;-65
2022/04/30 11:49:15;;;;;;;0.70;0.70;;;6.30;99.90;;;;;;4992699;28;20367;-65
2022/04/30 11:51:42;;;;;;;0.55;0.50;;;6.40;99.90;;;;;;4992623;28;20037;-65
2022/04/30 11:54:10;;;;;;;1.90;0.50;;;6.40;99.90;;;;;;4974871;28;20033;-65
2022/04/30 11:56:37;;;;;;;0.60;0.60;;;6.40;99.90;;;;;;4993226;28;20513;-64
2022/04/30 11:59:03;;;;;;;1.15;0.80;;;6.50;99.90;;;;;;4996516;28;20026;-66
2022/04/30 12:01:31;;;;;;;0.70;0.70;;;6.40;99.90;;;;;;4996487;28;20534;-67
2022/04/30 12:04:05;;;;;;;2.58;0.70;;;6.50;99.90;;;;;;4996580;28;20027;-65
2022/04/30 12:06:32;;;;;;;0.70;0.70;;;6.50;99.90;;;;;;4996366;28;20493;-65
2022/04/30 12:08:58;;;;;;;1.38;0.60;;;7.10;99.90;;;;;;4996686;28;20040;-65
2022/04/30 12:11:25;;;;;;;2.00;0.40;;;7.00;99.90;;;;;;4996049;28;20370;-65
2022/04/30 12:14:04;;;;;;;0.50;0.50;;;6.80;99.90;;;;;;4996317;28;20035;-65
2022/04/30 12:16:36;;;;;;;0.93;0.60;;;6.60;99.90;;;;;;4996242;28;20501;-65
2022/04/30 12:24:45;;;;;;;0.45;0.40;;;6.40;99.90;;;;;;4996110;28;20114;-65
2022/04/30 12:27:21;;;;;;;3.90;0.60;;;6.30;99.90;;;;;;4996031;28;20085;-65
2022/04/30 12:29:47;;;;;;;1.58;1.00;;;6.40;99.90;;;;;;4995891;28;20030;-65
2022/04/30 12:32:17;;;;;;;0.50;0.50;;;6.40;99.90;;;;;;4995769;28;20076;-65
2022/04/30 12:34:43;;;;;;;0.88;0.60;;;6.30;99.90;;;;;;4995932;28;20022;-65
2022/04/30 12:37:08;;;;;;;0.82;0.50;;;6.20;99.90;;;;;;4995993;28;20120;-66
2022/04/30 12:39:35;;;;;;;1.10;0.82;;;6.70;99.90;;;;;;4995604;28;20044;-66
2022/04/30 12:42:01;;;;;;;0.90;0.60;;;7.30;99.90;;;;;;4995377;28;20026;-66
2022/04/30 12:44:28;;;;;;;0.80;0.73;;;7.10;99.90;;;;;;4995670;28;20084;-66
2022/04/30 12:46:54;;;;;;;1.90;1.30;;;6.90;99.90;;;;;;4995553;28;20666;-65
2022/04/30 12:49:20;;;;;;;0.70;0.70;;;6.70;99.90;;;;;;4995552;28;20053;-67
2022/04/30 12:51:48;;;;;;;1.17;0.95;;;6.60;99.90;;;;;;4978113;28;20478;-67
2022/04/30 12:54:14;;;;;;;1.40;0.65;;;6.60;99.90;;;;;;4995588;28;20034;-67
2022/04/30 12:56:41;;;;;;;1.10;0.77;;;6.50;99.90;;;;;;4995400;28;20033;-67
2022/04/30 12:59:07;;;;;;;2.47;0.60;;;6.40;99.90;;;;;;4995647;28;20177;-67
2022/04/30 13:01:34;;;;;;;1.40;0.65;;;6.30;99.90;;;;;;4995480;28;20022;-67
2022/04/30 13:04:01;;;;;;;0.73;0.50;;;6.20;99.90;;;;;;4994792;28;20037;-67
2022/04/30 13:06:27;;;;;;;0.50;0.50;;;6.10;99.90;;;;;;4986785;28;20022;-68
2022/04/30 13:14:21;;;;;;;2.05;0.70;;;5.90;99.90;;;;;;4988765;28;20033;-67
2022/04/30 13:16:48;;;;;;;1.02;0.73;;;5.90;99.90;;;;;;4980642;28;20026;-67
2022/04/30 13:19:14;;;;;;;1.15;0.93;;;5.90;99.90;;;;;;4975481;28;20035;-66
2022/04/30 13:21:40;;;;;;;1.63;0.70;;;5.90;99.90;;;;;;4975619;28;20533;-67
2022/04/30 13:24:07;;;;;;;6.32;1.70;;;5.90;99.90;;;;;;4975699;28;20031;-67
2022/04/30 13:26:32;;;;;;;1.02;0.93;;;6.00;99.90;;;;;;4975401;28;20026;-67
2022/04/30 13:28:58;;;;;;;1.13;0.70;;;6.00;99.90;;;;;;4975834;28;20023;-67
2022/04/30 13:31:24;;;;;;;2.35;1.00;;;6.00;99.90;;;;;;4975215;28;20038;-67
2022/04/30 13:33:49;;;;;;;0.60;0.60;;;6.00;99.90;;;;;;4975609;28;20023;-67
2022/04/30 13:36:15;;;;;;;0.95;0.75;;;6.00;99.90;;;;;;4975265;28;20045;-66
2022/04/30 13:38:42;;;;;;;1.13;0.60;;;6.00;99.90;;;;;;4975347;28;20051;-67
2022/04/30 13:41:08;;;;;;;1.38;0.70;;;6.10;99.90;;;;;;4975428;28;20101;-67
2022/04/30 13:43:34;;;;;;;1.52;1.00;;;6.10;99.90;;;;;;4980089;28;20461;-67
2022/04/30 13:46:00;;;;;;;1.52;1.08;;;6.20;99.90;;;;;;4994322;28;20022;-67
2022/04/30 13:48:26;;;;;;;7.38;1.63;;;6.20;99.90;;;;;;4979961;28;20504;-67
2022/04/30 13:50:52;;;;;;;6.45;1.92;;;6.30;99.90;;;;;;4982010;28;20019;-67
2022/04/30 13:53:18;;;;;;;3.22;1.48;;;6.40;99.90;;;;;;4993376;28;20113;-67
2022/04/30 13:55:47;;;;;;;3.75;1.98;;;6.40;99.90;;;;;;4994286;28;20658;-67
2022/04/30 13:58:13;;;;;;;1.52;1.27;;;6.50;99.90;;;;;;4983659;28;20037;-66
2022/04/30 14:00:40;;;;;;;3.22;1.85;;;6.50;99.90;;;;;;4980273;28;20018;-66
2022/04/30 14:03:06;;;;;;;4.20;1.10;;;6.40;99.90;;;;;;4993272;28;20023;-67
2022/04/30 14:05:35;;;;;;;1.80;0.82;;;6.50;99.90;;;;;;4993610;28;20393;-70
2022/04/30 14:08:01;;;;;;;2.13;1.45;;;6.50;99.90;;;;;;4993357;28;20022;-68
2022/04/30 14:10:29;;;;;;;4.75;0.93;;;6.50;99.90;;;;;;4988748;28;20172;-67
2022/04/30 14:14:55;;;;;;;3.03;0.73;;;6.50;99.90;;;;;;4993422;28;20034;-68
2022/04/30 14:15:42;;;;;;;1.13;0.80;;;6.50;99.90;;;;;;4992574;28;20068;-68
2022/04/30 14:18:19;;;;;;;3.20;1.15;;;6.50;99.90;;;;;;4992984;28;20034;-68
2022/04/30 14:20:46;;;;;;;2.20;1.00;;;6.60;99.90;;;;;;4992174;28;20023;-68
2022/04/30 14:23:15;;;;;;;2.80;1.17;;;6.60;99.90;;;;;;4993493;28;20033;-68
2022/04/30 14:25:42;;;;;;;3.92;1.38;;;6.60;99.90;;;;;;4994016;28;20442;-68
2022/04/30 14:28:09;;;;;;;2.33;0.80;;;6.60;99.90;;;;;;4990695;28;20058;-68
2022/04/30 14:30:38;;;;;;;2.15;0.80;;;6.60;99.90;;;;;;4993698;28;20026;-68
2022/04/30 14:33:04;;;;;;;6.88;1.30;;;6.50;99.90;;;;;;4987021;28;20538;-68
2022/04/30 14:35:31;;;;;;;4.63;1.20;;;6.60;99.90;;;;;;4956343;28;20506;-68
2022/04/30 14:37:57;;;;;;;13.20;2.58;;;6.50;99.10;;;;;;4992882;28;20096;-68
2022/04/30 14:40:23;;;;;;;4.32;1.10;;;6.60;99.80;;;;;;4992884;28;20535;-68
2022/04/30 14:42:49;;;;;;;2.67;1.40;;;6.60;98.80;;;;;;4992958;28;20026;-68
2022/04/30 14:45:17;;;;;;;4.20;1.23;;;6.60;99.00;;;;;;4990148;28;20018;-70